WetterOnline ( https://www.wetteronline.ch )

Wetter aktuell Regen

Aktuelles Wetter: Zwiesel (613m)

6-stündlich | Neueste Meldungen
Ortszeit Temperatur Wetter
Sa, 04.04. 14:00 10.8° C bedeckt
Sa, 04.04. 8:00 2.3° C bedeckt
Sa, 04.04. 2:00 2.9° C bedeckt
Fr, 03.04. 20:00 7.0° C bedeckt
Fr, 03.04. 14:00 8.9° C bedeckt
Fr, 03.04. 8:00 -3.9° C wolkenlos
Fr, 03.04. 2:00 -3.2° C wolkenlos
Do, 02.04. 20:00 5.9° C wolkenlos
Ortszeit Temperatur Wetter
Sa, 04.04. 14:00 10.8° C bedeckt
Sa, 04.04. 13:50 10.8° C bedeckt
Sa, 04.04. 13:40 11.1° C bedeckt
Sa, 04.04. 13:30 10.8° C bewölkt
Sa, 04.04. 13:20 10.8° C bewölkt
Sa, 04.04. 13:10 10.5° C bewölkt
Sa, 04.04. 13:00 10.1° C wolkig
Sa, 04.04. 12:30 9.1° C leicht bewölkt
Sa, 04.04. 12:00 9.6° C bewölkt
Sa, 04.04. 11:30 8.6° C bewölkt
Sa, 04.04. 11:00 8.2° C bedeckt
Ortszeit Relative Feuchte Sichtweite
Sa, 04.04. 14:00 39% 50 km
Sa, 04.04. 8:00 83% 35 km
Sa, 04.04. 2:00 75% 35 km
Fr, 03.04. 20:00 55% 45 km
Fr, 03.04. 14:00 46% 40 km
Fr, 03.04. 8:00 74% 26 km
Fr, 03.04. 2:00 73% 30 km
Do, 02.04. 20:00 38% 45 km
Ortszeit Relative Feuchte Sichtweite
Sa, 04.04. 14:00 39% 50 km
Sa, 04.04. 13:50 39% -
Sa, 04.04. 13:40 40% -
Sa, 04.04. 13:30 39% 45 km
Sa, 04.04. 13:20 39% -
Sa, 04.04. 13:10 40% -
Sa, 04.04. 13:00 39% 45 km
Sa, 04.04. 12:30 44% 45 km
Sa, 04.04. 12:00 45% 45 km
Sa, 04.04. 11:30 46% 40 km
Sa, 04.04. 11:00 49% 40 km
Ortszeit Niederschlagsmenge Niederschlagsart
Sa, 04.04. 14:00 0.0 l/m2 in 6 Std. -
Sa, 04.04. 8:00 0.0 l/m2 in 12 Std. -
Sa, 04.04. 2:00 0.0 l/m2 in 6 Std. -
Fr, 03.04. 20:00 0.0 l/m2 in 12 Std. -
Fr, 03.04. 14:00 0.0 l/m2 in 6 Std. -
Fr, 03.04. 8:00 0.0 l/m2 in 12 Std. -
Fr, 03.04. 2:00 0.0 l/m2 in 6 Std. -
Do, 02.04. 20:00 0.0 l/m2 in 12 Std. -
Ortszeit Niederschlagsmenge Niederschlagsart
Sa, 04.04. 14:00 0.0 l/m2 in 1 Std. -
Sa, 04.04. 13:50 keine Meldung -
Sa, 04.04. 13:40 keine Meldung -
Sa, 04.04. 13:30 0.0 l/m2 in 1 Std. -
Sa, 04.04. 13:20 keine Meldung -
Sa, 04.04. 13:10 keine Meldung -
Sa, 04.04. 13:00 0.0 l/m2 in 1 Std. -
Sa, 04.04. 12:30 0.0 l/m2 in 1 Std. -
Sa, 04.04. 12:00 0.0 l/m2 in 1 Std. -
Sa, 04.04. 11:30 0.0 l/m2 in 1 Std. -
Sa, 04.04. 11:00 0.0 l/m2 in 1 Std. -
Ortszeit Stärke Spitze Richtung
km/h Bft. km/h Grad Sektor
Sa, 04.04. 14:00 4 1 18 160° S
Sa, 04.04. 8:00 2 1 9 120° SO
Sa, 04.04. 2:00 4 1 11 110° O
Fr, 03.04. 20:00 7 2 29 360° N
Fr, 03.04. 14:00 18 3 36 310° NW
Fr, 03.04. 8:00 0 0 7 - -
Fr, 03.04. 2:00 4 1 11 340° N
Do, 02.04. 20:00 4 1 22 320° NW
Ortszeit Stärke Spitze Richtung
km/h Bft. km/h Grad Sektor
Sa, 04.04. 14:00 4 1 18 160° S
Sa, 04.04. 13:50 4 1 - 160° S
Sa, 04.04. 13:40 7 2 - 30° NO
Sa, 04.04. 13:30 9 2 17 250° W
Sa, 04.04. 13:20 9 2 - 250° W
Sa, 04.04. 13:10 9 2 - 240° SW
Sa, 04.04. 13:00 7 2 14 190° S
Sa, 04.04. 12:30 6 1 13 220° SW
Sa, 04.04. 12:00 6 1 15 360° N
Sa, 04.04. 11:30 4 1 11 80° O
Sa, 04.04. 11:00 7 2 14 360° N
Ortszeit Untergrenze Bedeckung Gattung
total tief tief mittel hoch
Sa, 04.04. 14:00 1800 m 8/8 8/8 - - -
Sa, 04.04. 8:00 1800 m 8/8 8/8 - - -
Sa, 04.04. 2:00 2100 m 8/8 8/8 - - -
Fr, 03.04. 20:00 1800 m 8/8 8/8 - - -
Fr, 03.04. 14:00 2100 m 8/8 8/8 - - -
Fr, 03.04. 8:00 - 0/8 0/8 - - -
Fr, 03.04. 2:00 - 0/8 0/8 - - -
Do, 02.04. 20:00 - 0/8 0/8 - - -
Ortszeit Bedeckungsgrad in Achtel und Wolkenuntergrenze
Sa, 04.04. 14:00 8(1800m)
Sa, 04.04. 13:50 8(1800m)
Sa, 04.04. 13:40 8(1500m)
Sa, 04.04. 13:30 7(1500m)
Sa, 04.04. 13:20 7(1500m)
Sa, 04.04. 13:10 7(1500m)
Sa, 04.04. 13:00 5(1500m)
Sa, 04.04. 12:30 3(1500m)
Sa, 04.04. 12:00 7(1500m)
Sa, 04.04. 11:30 7(1350m) 7(1500m)
Sa, 04.04. 11:00 8(1320m)
Ortszeit Luftdruck NN (hPa) Tendenz (hPa in 3 Std.)
Sa, 04.04. 14:00 1024 + 0,1
Sa, 04.04. 8:00 1025 + 1,6
Sa, 04.04. 2:00 1022 + 1,0
Fr, 03.04. 20:00 1018 + 1,5
Fr, 03.04. 14:00 1015 + 0,5
Fr, 03.04. 8:00 1017 + 1,7
Fr, 03.04. 2:00 1014 + 0,2
Do, 02.04. 20:00 1011 - 0,2
Ortszeit Luftdruck NN (hPa) Tendenz (hPa in 3 Std.)
Sa, 04.04. 14:00 1024 + 0,1
Sa, 04.04. 13:50 1024 keine Meldung
Sa, 04.04. 13:40 1024 keine Meldung
Sa, 04.04. 13:30 1024 + 0,3
Sa, 04.04. 13:20 1024 keine Meldung
Sa, 04.04. 13:10 1024 keine Meldung
Sa, 04.04. 13:00 1024 + 0,6
Sa, 04.04. 12:30 1024 + 0,7
Sa, 04.04. 12:00 1024 + 0,9
Sa, 04.04. 11:30 1024 + 1,3
Sa, 04.04. 11:00 1024 + 1,3
Ortszeit Schneehöhe (cm)
Sa, 04.04. 14:00 0
Sa, 04.04. 8:00 0
Sa, 04.04. 2:00 0
Fr, 03.04. 20:00 0
Fr, 03.04. 14:00 0
Fr, 03.04. 8:00 0
Fr, 03.04. 2:00 0
Do, 02.04. 20:00 0
Ortszeit Schneehöhe (cm)
Sa, 04.04. 14:00 0
Sa, 04.04. 13:50 0
Sa, 04.04. 13:40 0
Sa, 04.04. 13:30 0
Sa, 04.04. 13:20 0
Sa, 04.04. 13:10 0
Sa, 04.04. 13:00 0
Sa, 04.04. 12:30 0
Sa, 04.04. 12:00 0
Sa, 04.04. 11:30 0
Sa, 04.04. 11:00 0
Link zu dieser Seite / Seite empfehlen

Das Wetter in ...